createdAt,value
2018-09-03T00:00:44.467Z,16.61
2018-09-03T00:01:44.502Z,16.61
2018-09-03T00:02:44.540Z,16.58
2018-09-03T00:03:44.570Z,16.53
2018-09-03T00:04:44.604Z,16.58
2018-09-03T00:05:44.637Z,16.56
2018-09-03T00:06:44.671Z,16.50
2018-09-03T00:07:44.705Z,16.49
2018-09-03T00:08:44.739Z,16.49
2018-09-03T00:09:44.773Z,16.46
2018-09-03T00:10:44.807Z,16.38
2018-09-03T00:11:44.840Z,16.31
2018-09-03T00:12:44.874Z,16.25
2018-09-03T00:13:44.907Z,16.33
2018-09-03T00:14:44.946Z,16.23
2018-09-03T00:15:44.976Z,16.14
2018-09-03T00:16:45.010Z,16.24
2018-09-03T00:17:45.043Z,16.17
2018-09-03T00:18:45.080Z,16.12
2018-09-03T00:19:45.113Z,16.14
2018-09-03T00:20:45.148Z,16.21
2018-09-03T00:21:45.178Z,16.17
2018-09-03T00:22:45.213Z,16.20
2018-09-03T00:23:45.246Z,16.17
2018-09-03T00:24:45.283Z,16.15
2018-09-03T00:25:45.313Z,16.11
2018-09-03T00:26:45.347Z,16.14
2018-09-03T00:27:45.381Z,16.15
2018-09-03T00:28:45.413Z,16.11
2018-09-03T00:29:45.448Z,16.11
2018-09-03T00:30:45.481Z,16.23
2018-09-03T00:31:45.515Z,16.15
2018-09-03T00:32:45.549Z,16.17
2018-09-03T00:33:45.581Z,16.20
2018-09-03T00:34:45.615Z,16.14
2018-09-03T00:35:45.649Z,16.17
2018-09-03T00:36:45.682Z,16.17
2018-09-03T00:37:45.716Z,16.12
2018-09-03T00:38:45.750Z,16.21
2018-09-03T00:39:45.791Z,16.23
2018-09-03T00:40:45.816Z,16.17
2018-09-03T00:41:45.850Z,16.20
2018-09-03T00:42:45.884Z,16.14
2018-09-03T00:43:45.918Z,16.21
2018-09-03T00:44:45.950Z,16.12
2018-09-03T00:45:45.984Z,16.17
2018-09-03T00:46:46.018Z,16.17
2018-09-03T00:47:46.052Z,16.15
2018-09-03T00:48:46.085Z,16.17
2018-09-03T00:49:46.118Z,16.12
2018-09-03T00:50:46.152Z,16.24
2018-09-03T00:51:46.186Z,16.25
2018-09-03T00:52:46.218Z,16.33
2018-09-03T00:53:46.256Z,16.30
2018-09-03T00:54:46.287Z,16.28
2018-09-03T00:55:46.323Z,16.30
2018-09-03T00:56:46.353Z,16.41
2018-09-03T00:57:46.388Z,16.41
2018-09-03T00:58:46.423Z,16.38
2018-09-03T00:59:46.455Z,16.42
2018-09-03T01:00:46.493Z,16.45
2018-09-03T01:01:46.522Z,16.39
2018-09-03T01:02:46.555Z,16.39
2018-09-03T01:03:46.591Z,16.33
2018-09-03T01:04:46.623Z,16.35
2018-09-03T01:05:46.659Z,16.42
2018-09-03T01:06:46.691Z,16.45
2018-09-03T01:07:46.724Z,16.49
2018-09-03T01:08:46.757Z,16.39
2018-09-03T01:09:46.791Z,16.53
2018-09-03T01:10:46.824Z,16.43
2018-09-03T01:11:46.861Z,16.48
2018-09-03T01:12:46.893Z,16.50
2018-09-03T01:13:46.925Z,16.39
2018-09-03T01:14:46.961Z,16.42
2018-09-03T01:15:46.993Z,16.49
2018-09-03T01:16:47.032Z,16.35
2018-09-03T01:17:47.060Z,16.27
2018-09-03T01:18:47.097Z,16.39
2018-09-03T01:19:47.128Z,16.33
2018-09-03T01:20:47.160Z,16.28
2018-09-03T01:21:47.195Z,16.25
2018-09-03T01:22:47.229Z,16.24
2018-09-03T01:23:47.263Z,16.33
2018-09-03T01:24:47.297Z,16.27
2018-09-03T01:25:47.329Z,16.34
2018-09-03T01:26:47.364Z,16.33
2018-09-03T01:27:47.397Z,16.23
2018-09-03T01:28:47.430Z,16.33
2018-09-03T01:29:47.464Z,16.34
2018-09-03T01:30:47.501Z,16.41
2018-09-03T01:31:47.533Z,16.42
2018-09-03T01:32:47.565Z,16.35
2018-09-03T01:33:47.599Z,16.38
2018-09-03T01:34:47.633Z,16.28
2018-09-03T01:35:47.667Z,16.25
2018-09-03T01:36:47.700Z,16.27
2018-09-03T01:37:47.739Z,16.27
2018-09-03T01:38:47.767Z,16.30
2018-09-03T01:39:47.803Z,16.31
2018-09-03T01:40:47.837Z,16.34
2018-09-03T01:41:47.869Z,16.25
2018-09-03T01:42:47.904Z,16.35
2018-09-03T01:43:47.936Z,16.28
2018-09-03T01:44:47.968Z,16.28
2018-09-03T01:45:48.003Z,16.35
2018-09-03T01:46:48.037Z,16.38
2018-09-03T01:47:48.073Z,16.42
2018-09-03T01:48:48.106Z,16.42
2018-09-03T01:49:48.139Z,16.31
2018-09-03T01:50:48.172Z,16.39
2018-09-03T01:51:48.207Z,16.38
2018-09-03T01:52:48.238Z,16.41
2018-09-03T01:53:48.272Z,16.42
2018-09-03T01:54:48.305Z,16.35
2018-09-03T01:55:48.341Z,16.39
2018-09-03T01:56:48.372Z,16.41
2018-09-03T01:57:48.407Z,16.39
2018-09-03T01:58:48.440Z,16.34
2018-09-03T01:59:48.473Z,16.31
2018-09-03T02:00:48.507Z,16.31
2018-09-03T02:01:48.540Z,16.28
2018-09-03T02:02:48.575Z,16.27
2018-09-03T02:03:48.612Z,16.25
2018-09-03T02:04:48.641Z,16.25
2018-09-03T02:05:48.676Z,16.28
2018-09-03T02:06:48.711Z,16.31
2018-09-03T02:07:48.743Z,16.28
2018-09-03T02:08:48.777Z,16.30
2018-09-03T02:09:48.811Z,16.31
2018-09-03T02:10:48.846Z,16.33
2018-09-03T02:11:48.878Z,16.23
2018-09-03T02:12:48.910Z,16.35
2018-09-03T02:13:48.944Z,16.17
2018-09-03T02:14:48.978Z,16.27
2018-09-03T02:15:49.013Z,16.35
2018-09-03T02:16:49.050Z,16.23
2018-09-03T02:17:49.078Z,16.30
2018-09-03T02:18:49.116Z,16.27
2018-09-03T02:19:49.147Z,16.24
2018-09-03T02:20:49.180Z,16.14
2018-09-03T02:21:49.213Z,16.20
2018-09-03T02:22:49.247Z,16.24
2018-09-03T02:23:49.280Z,16.30
2018-09-03T02:24:49.314Z,16.12
2018-09-03T02:25:49.348Z,16.21
2018-09-03T02:26:49.384Z,16.24
2018-09-03T02:27:49.415Z,16.20
2018-09-03T02:28:49.448Z,16.20
2018-09-03T02:29:49.482Z,16.21
2018-09-03T02:30:49.515Z,16.21
2018-09-03T02:31:49.552Z,16.24
2018-09-03T02:32:49.582Z,16.20
2018-09-03T02:33:49.618Z,16.21
2018-09-03T02:34:49.650Z,16.21
2018-09-03T02:35:49.685Z,16.17
2018-09-03T02:36:49.717Z,16.20
2018-09-03T02:37:49.756Z,16.17
2018-09-03T02:38:49.793Z,16.15
2018-09-03T02:39:49.820Z,16.15
2018-09-03T02:40:49.851Z,16.28
2018-09-03T02:41:49.886Z,16.17
2018-09-03T02:42:49.919Z,16.23
2018-09-03T02:43:49.953Z,16.14
2018-09-03T02:44:49.989Z,16.23
2018-09-03T02:45:50.020Z,16.17
2018-09-03T02:46:50.058Z,16.21
2018-09-03T02:47:50.091Z,16.24
2018-09-03T02:48:50.123Z,16.23
2018-09-03T02:49:50.155Z,16.17
2018-09-03T02:50:50.198Z,16.20
2018-09-03T02:51:50.222Z,16.14
2018-09-03T02:52:50.257Z,16.21
2018-09-03T02:53:50.289Z,16.25
2018-09-03T02:54:50.323Z,16.17
2018-09-03T02:55:50.355Z,16.15
2018-09-03T02:56:50.391Z,16.17
2018-09-03T02:57:50.425Z,16.17
2018-09-03T02:58:50.457Z,16.14
2018-09-03T02:59:50.489Z,16.15
2018-09-03T03:00:50.523Z,16.20
2018-09-03T03:01:50.556Z,16.12
2018-09-03T03:02:50.591Z,16.17
2018-09-03T03:03:50.628Z,16.20
2018-09-03T03:04:50.658Z,16.15
2018-09-03T03:05:50.692Z,16.20
2018-09-03T03:06:50.728Z,16.14
2018-09-03T03:07:50.760Z,16.15
2018-09-03T03:08:50.791Z,16.24
2018-09-03T03:09:50.824Z,16.23
2018-09-03T03:10:50.860Z,16.21
2018-09-03T03:11:50.986Z,16.17
2018-09-03T03:12:50.925Z,16.21
2018-09-03T03:13:50.961Z,16.15
2018-09-03T03:14:50.996Z,16.20
2018-09-03T03:15:51.029Z,16.24
2018-09-03T03:16:51.061Z,16.20
2018-09-03T03:17:51.095Z,16.15
2018-09-03T03:18:51.131Z,16.14
2018-09-03T03:19:51.217Z,16.15
2018-09-03T03:20:51.195Z,16.23
2018-09-03T03:21:51.228Z,16.14
2018-09-03T03:22:51.262Z,16.09
2018-09-03T03:23:51.301Z,16.20
2018-09-03T03:24:51.329Z,16.09
2018-09-03T03:25:51.363Z,16.09
2018-09-03T03:26:51.396Z,16.12
2018-09-03T03:27:51.434Z,16.12
2018-09-03T03:28:51.462Z,16.09
2018-09-03T03:29:51.504Z,15.94
2018-09-03T03:30:51.531Z,15.96
2018-09-03T03:31:51.565Z,16.02
2018-09-03T03:32:51.596Z,15.92
2018-09-03T03:33:51.630Z,16.04
2018-09-03T03:34:51.665Z,16.00
2018-09-03T03:35:51.697Z,15.97
2018-09-03T03:36:51.734Z,16.07
2018-09-03T03:37:51.765Z,16.00
2018-09-03T03:38:51.797Z,16.05
2018-09-03T03:39:51.833Z,15.97
2018-09-03T03:40:51.931Z,16.02
2018-09-03T03:41:51.899Z,16.09
2018-09-03T03:42:51.932Z,16.11
2018-09-03T03:43:51.969Z,16.12
2018-09-03T03:44:51.998Z,16.09
2018-09-03T03:45:52.033Z,16.12
2018-09-03T03:46:52.065Z,16.11
2018-09-03T03:47:52.100Z,16.20
2018-09-03T03:48:52.133Z,16.20
2018-09-03T03:49:52.168Z,16.24
2018-09-03T03:50:52.201Z,16.20
2018-09-03T03:51:52.237Z,16.24
2018-09-03T03:52:52.267Z,16.33
2018-09-03T03:53:52.300Z,16.34
2018-09-03T03:54:52.336Z,16.30
2018-09-03T03:55:52.368Z,16.21
2018-09-03T03:56:52.400Z,16.33
2018-09-03T03:57:52.434Z,16.17
2018-09-03T03:58:52.468Z,16.34
2018-09-03T03:59:52.502Z,16.25
2018-09-03T04:00:52.534Z,16.33
2018-09-03T04:01:52.569Z,16.24
2018-09-03T04:02:52.604Z,16.31
2018-09-03T04:03:52.637Z,16.35
2018-09-03T04:04:52.668Z,16.17
2018-09-03T04:05:52.702Z,16.24
2018-09-03T04:06:52.738Z,16.31
2018-09-03T04:07:52.769Z,16.25
2018-09-03T04:08:52.802Z,16.33
2018-09-03T04:09:52.835Z,16.31
2018-09-03T04:10:52.871Z,16.38
2018-09-03T04:11:52.906Z,16.30
2018-09-03T04:12:52.935Z,16.35
2018-09-03T04:13:52.968Z,16.33
2018-09-03T04:14:53.003Z,16.41
2018-09-03T04:15:53.037Z,16.34
2018-09-03T04:16:53.069Z,16.45
2018-09-03T04:17:53.102Z,16.38
2018-09-03T04:18:53.137Z,16.39
2018-09-03T04:19:53.171Z,16.41
2018-09-03T04:20:53.205Z,16.38
2018-09-03T04:21:53.237Z,16.31
2018-09-03T04:22:53.360Z,16.33
2018-09-03T04:23:53.304Z,16.30
2018-09-03T04:24:53.338Z,16.35
2018-09-03T04:25:53.371Z,16.28
2018-09-03T04:26:53.405Z,16.31
2018-09-03T04:27:53.439Z,16.35
2018-09-03T04:28:53.550Z,16.17
2018-09-03T04:29:53.505Z,16.21
2018-09-03T04:30:53.545Z,16.07
2018-09-03T04:31:53.573Z,16.12
2018-09-03T04:32:53.614Z,16.11
2018-09-03T04:33:53.639Z,16.02
2018-09-03T04:34:53.673Z,16.02
2018-09-03T04:35:53.709Z,16.08
2018-09-03T04:36:53.738Z,16.05
2018-09-03T04:37:53.774Z,16.09
2018-09-03T04:38:53.888Z,16.07
2018-09-03T04:39:53.841Z,16.17
2018-09-03T04:40:53.876Z,16.07
2018-09-03T04:41:53.907Z,16.08
2018-09-03T04:42:53.945Z,16.15
2018-09-03T04:43:53.981Z,16.14
2018-09-03T04:44:54.007Z,16.15
2018-09-03T04:45:54.043Z,16.20
2018-09-03T04:46:54.075Z,16.23
2018-09-03T04:47:54.159Z,16.20
2018-09-03T04:48:54.141Z,16.17
2018-09-03T04:49:54.175Z,16.12
2018-09-03T04:50:54.209Z,16.09
2018-09-03T04:51:54.242Z,16.05
2018-09-03T04:52:54.275Z,16.12
2018-09-03T04:53:54.308Z,16.08
2018-09-03T04:54:54.345Z,16.11
2018-09-03T04:55:54.377Z,16.11
2018-09-03T04:56:54.410Z,16.04
2018-09-03T04:57:54.443Z,16.11
2018-09-03T04:58:54.477Z,16.11
2018-09-03T04:59:54.512Z,16.14
2018-09-03T05:00:54.543Z,16.08
2018-09-03T05:01:54.578Z,16.09
2018-09-03T05:02:54.612Z,16.09
2018-09-03T05:03:54.643Z,16.20
2018-09-03T05:04:54.679Z,16.17
2018-09-03T05:05:54.730Z,16.14
2018-09-03T05:06:54.745Z,16.20
2018-09-03T05:07:54.778Z,16.20
2018-09-03T05:08:54.811Z,16.25
2018-09-03T05:09:54.847Z,16.34
2018-09-03T05:10:54.879Z,16.23
2018-09-03T05:11:55.039Z,16.27
2018-09-03T05:12:54.946Z,16.38
2018-09-03T05:13:54.979Z,16.35
2018-09-03T05:14:55.021Z,16.43
2018-09-03T05:15:55.046Z,16.34
2018-09-03T05:16:55.079Z,16.43
2018-09-03T05:17:55.114Z,16.34
2018-09-03T05:18:55.147Z,16.35
2018-09-03T05:19:55.180Z,16.42
2018-09-03T05:20:55.213Z,16.39
2018-09-03T05:21:55.245Z,16.38
2018-09-03T05:22:55.281Z,16.38
2018-09-03T05:23:55.314Z,16.35
2018-09-03T05:24:55.348Z,16.35
2018-09-03T05:25:55.385Z,16.24
2018-09-03T05:26:55.414Z,16.33
2018-09-03T05:27:55.449Z,16.20
2018-09-03T05:28:55.481Z,16.30
2018-09-03T05:29:55.513Z,16.30
2018-09-03T05:30:55.549Z,16.31
2018-09-03T05:31:55.584Z,16.30
2018-09-03T05:32:55.616Z,16.30
2018-09-03T05:33:55.651Z,16.30
2018-09-03T05:34:55.683Z,16.30
2018-09-03T05:35:55.717Z,16.28
2018-09-03T05:36:55.751Z,16.17
2018-09-03T05:37:55.783Z,16.33
2018-09-03T05:38:55.818Z,16.34
2018-09-03T05:39:55.852Z,16.35
2018-09-03T05:40:55.885Z,16.31
2018-09-03T05:41:55.919Z,16.30
2018-09-03T05:42:55.969Z,16.11
2018-09-03T05:43:56.047Z,16.30
2018-09-03T05:44:56.019Z,16.33
2018-09-03T05:45:56.053Z,16.41
2018-09-03T05:46:56.088Z,16.39
2018-09-03T05:47:56.120Z,16.56
2018-09-03T05:48:56.154Z,16.58
2018-09-03T05:49:56.188Z,16.71
2018-09-03T05:50:56.222Z,16.78
2018-09-03T05:51:56.256Z,16.71
2018-09-03T05:52:56.288Z,16.79
2018-09-03T05:53:56.322Z,16.82
2018-09-03T05:54:56.356Z,16.98
2018-09-03T05:55:56.391Z,16.98
2018-09-03T05:56:56.424Z,16.94
2018-09-03T05:57:56.457Z,16.96
2018-09-03T05:58:56.495Z,16.98
2018-09-03T05:59:56.525Z,17.00
2018-09-03T06:00:56.558Z,16.97
2018-09-03T06:01:56.593Z,16.93
2018-09-03T06:02:56.626Z,16.94
2018-09-03T06:03:56.661Z,16.73
2018-09-03T06:04:56.725Z,16.71
2018-09-03T06:05:56.727Z,16.57
2018-09-03T06:06:56.763Z,16.61
2018-09-03T06:07:56.795Z,16.52
2018-09-03T06:08:56.829Z,16.45
2018-09-03T06:09:56.862Z,16.46
2018-09-03T06:10:56.904Z,16.64
2018-09-03T06:11:56.932Z,16.70
2018-09-03T06:12:56.963Z,16.76
2018-09-03T06:13:56.997Z,16.82
2018-09-03T06:14:57.031Z,16.91
2018-09-03T06:15:57.064Z,16.94
2018-09-03T06:16:57.101Z,17.08
2018-09-03T06:17:57.140Z,17.11
2018-09-03T06:18:57.167Z,17.19
2018-09-03T06:19:57.204Z,17.34
2018-09-03T06:20:57.236Z,17.37
2018-09-03T06:21:57.268Z,17.52
2018-09-03T06:22:57.302Z,17.58
2018-09-03T06:23:57.337Z,17.70
2018-09-03T06:24:57.370Z,17.74
2018-09-03T06:25:57.404Z,17.71
2018-09-03T06:26:57.439Z,17.86
2018-09-03T06:27:57.473Z,17.86
2018-09-03T06:28:57.505Z,17.86
2018-09-03T06:29:57.540Z,17.90
2018-09-03T06:30:57.574Z,17.95
2018-09-03T06:31:57.609Z,17.93
2018-09-03T06:32:57.689Z,18.07
2018-09-03T06:33:57.676Z,18.03
2018-09-03T06:34:57.712Z,18.12
2018-09-03T06:35:57.759Z,17.96
2018-09-03T06:36:57.782Z,18.10
2018-09-03T06:37:57.812Z,17.96
2018-09-03T06:38:57.849Z,17.96
2018-09-03T06:39:57.882Z,18.00
2018-09-03T06:40:57.917Z,17.96
2018-09-03T06:41:57.951Z,17.93
2018-09-03T06:42:57.984Z,17.87
2018-09-03T06:43:58.019Z,17.99
2018-09-03T06:44:58.054Z,18.03
2018-09-03T06:45:58.098Z,18.14
2018-09-03T06:46:58.123Z,18.12
2018-09-03T06:47:58.159Z,18.15
2018-09-03T06:48:58.192Z,18.03
2018-09-03T06:49:58.226Z,18.08
2018-09-03T06:50:58.261Z,17.95
2018-09-03T06:51:58.295Z,17.95
2018-09-03T06:52:58.331Z,17.93
2018-09-03T06:53:58.364Z,18.02
2018-09-03T06:54:58.399Z,18.02
2018-09-03T06:55:58.433Z,17.97
2018-09-03T06:56:58.469Z,17.87
2018-09-03T06:57:58.502Z,17.78
2018-09-03T06:58:58.537Z,17.75
2018-09-03T06:59:58.571Z,17.72
2018-09-03T07:00:58.606Z,17.87
2018-09-03T07:01:58.641Z,17.78
2018-09-03T07:02:58.676Z,17.82
2018-09-03T07:03:58.711Z,17.90
2018-09-03T07:04:58.745Z,18.11
2018-09-03T07:05:58.780Z,18.12
2018-09-03T07:06:58.814Z,18.18
2018-09-03T07:07:58.849Z,18.29
2018-09-03T07:08:58.884Z,18.37
2018-09-03T07:09:58.917Z,18.29
2018-09-03T07:10:58.954Z,18.21
2018-09-03T07:11:58.988Z,18.20
2018-09-03T07:12:59.022Z,18.23
2018-09-03T07:13:59.060Z,18.17
2018-09-03T07:14:59.092Z,18.35
2018-09-03T07:15:59.127Z,18.36
2018-09-03T07:16:59.161Z,18.45
2018-09-03T07:17:59.196Z,18.70
2018-09-03T07:18:59.230Z,18.65
2018-09-03T07:19:59.265Z,18.57
2018-09-03T07:20:59.300Z,18.58
2018-09-03T07:21:59.335Z,18.60
2018-09-03T07:22:59.369Z,18.58
2018-09-03T07:23:59.406Z,18.60
2018-09-03T07:24:59.439Z,18.70
2018-09-03T07:25:59.478Z,18.69
2018-09-03T07:26:59.511Z,18.76
2018-09-03T07:27:59.546Z,18.84
2018-09-03T07:28:59.636Z,18.87
2018-09-03T07:29:59.617Z,18.75
2018-09-03T07:30:59.650Z,18.99
2018-09-03T07:31:59.686Z,19.02
2018-09-03T07:32:59.720Z,19.06
2018-09-03T07:33:59.758Z,19.04
2018-09-03T07:34:59.806Z,19.04
2018-09-03T07:35:59.828Z,19.06
2018-09-03T07:36:59.862Z,19.00
2018-09-03T07:37:59.902Z,19.04
2018-09-03T07:38:59.937Z,19.13
2018-09-03T07:39:59.970Z,19.37
2018-09-03T07:41:00.011Z,19.36
2018-09-03T07:42:00.043Z,19.50
2018-09-03T07:43:00.084Z,19.50
2018-09-03T07:44:00.151Z,19.59
2018-09-03T07:45:00.145Z,19.74
2018-09-03T07:46:00.181Z,19.81
2018-09-03T07:47:00.217Z,19.95
2018-09-03T07:48:00.252Z,20.05
2018-09-03T07:49:00.341Z,19.83
2018-09-03T07:50:00.327Z,19.86
2018-09-03T07:51:00.363Z,20.01
2018-09-03T07:52:00.395Z,19.96
2018-09-03T07:53:00.430Z,19.92
2018-09-03T07:54:00.466Z,19.96
2018-09-03T07:55:00.503Z,20.02
2018-09-03T07:56:00.540Z,20.14
2018-09-03T07:57:00.576Z,20.21
2018-09-03T07:58:00.610Z,20.26
2018-09-03T07:59:00.647Z,20.26
2018-09-03T08:00:00.684Z,20.24
2018-09-03T08:01:00.728Z,20.11
2018-09-03T08:02:00.755Z,20.08
2018-09-03T08:03:00.793Z,20.01
2018-09-03T08:04:00.828Z,20.03
2018-09-03T08:05:00.863Z,20.06
2018-09-03T08:06:00.900Z,19.78
2018-09-03T08:07:00.935Z,19.77
2018-09-03T08:08:00.979Z,19.84
2018-09-03T08:09:01.009Z,19.88
2018-09-03T08:10:01.045Z,19.98
2018-09-03T08:11:01.082Z,20.13
2018-09-03T08:12:01.133Z,20.02
2018-09-03T08:13:01.252Z,20.02
2018-09-03T08:14:01.208Z,20.05
2018-09-03T08:15:01.228Z,20.11
2018-09-03T08:16:01.265Z,20.13
2018-09-03T08:17:01.304Z,20.18
2018-09-03T08:18:01.336Z,19.99
2018-09-03T08:19:01.373Z,19.99
2018-09-03T08:20:01.444Z,19.80
2018-09-03T08:21:01.448Z,19.65
2018-09-03T08:22:01.484Z,19.68
2018-09-03T08:23:01.520Z,19.58
2018-09-03T08:24:01.558Z,19.66
2018-09-03T08:25:01.592Z,19.56
2018-09-03T08:26:01.648Z,19.68
2018-09-03T08:27:01.665Z,19.74
2018-09-03T08:28:01.702Z,19.77
2018-09-03T08:29:01.738Z,19.44
2018-09-03T08:30:01.797Z,19.39
2018-09-03T08:31:01.813Z,19.50
2018-09-03T08:32:01.850Z,19.58
2018-09-03T08:33:01.885Z,19.47
2018-09-03T08:34:01.922Z,19.68
2018-09-03T08:35:01.964Z,19.84
2018-09-03T08:36:01.995Z,19.84
2018-09-03T08:37:02.032Z,19.76
2018-09-03T08:38:02.073Z,19.86
2018-09-03T08:39:02.105Z,19.77
2018-09-03T08:40:02.180Z,19.95
2018-09-03T08:41:02.177Z,19.88
2018-09-03T08:42:02.232Z,20.02
2018-09-03T08:43:02.251Z,19.99
2018-09-03T08:44:02.289Z,19.92
2018-09-03T08:45:02.324Z,19.77
2018-09-03T08:46:02.361Z,19.81
2018-09-03T08:47:02.398Z,19.96
2018-09-03T08:48:02.436Z,19.94
2018-09-03T08:49:02.469Z,20.06
2018-09-03T08:50:02.506Z,20.13
2018-09-03T08:51:02.550Z,20.28
2018-09-03T08:52:02.580Z,20.41
2018-09-03T08:53:02.617Z,20.43
2018-09-03T08:54:02.672Z,20.50
2018-09-03T08:55:02.705Z,20.64
2018-09-03T08:56:02.743Z,20.36
2018-09-03T08:57:02.782Z,20.52
2018-09-03T08:58:02.825Z,20.59
2018-09-03T08:59:02.843Z,20.50
2018-09-03T09:00:02.875Z,20.67
2018-09-03T09:01:02.912Z,20.74
2018-09-03T09:02:02.949Z,20.89
2018-09-03T09:03:02.986Z,20.98
2018-09-03T09:04:03.022Z,20.84
2018-09-03T09:05:03.061Z,20.82
2018-09-03T09:06:03.097Z,20.59
2018-09-03T09:07:03.137Z,20.80
2018-09-03T09:08:03.172Z,20.79
2018-09-03T09:09:03.207Z,20.55
2018-09-03T09:10:03.246Z,20.50
2018-09-03T09:11:03.285Z,20.84
2018-09-03T09:12:03.321Z,21.14
2018-09-03T09:13:03.359Z,21.24
2018-09-03T09:14:03.395Z,21.27
2018-09-03T09:15:03.434Z,21.28
2018-09-03T09:16:03.470Z,21.53
2018-09-03T09:17:03.507Z,21.69
2018-09-03T09:18:03.545Z,21.74
2018-09-03T09:19:03.582Z,21.92
2018-09-03T09:20:03.622Z,21.91
2018-09-03T09:21:03.659Z,21.98
2018-09-03T09:22:03.697Z,21.94
2018-09-03T09:23:03.734Z,21.94
2018-09-03T09:24:03.810Z,21.92
2018-09-03T09:25:03.855Z,22.05
2018-09-03T09:26:03.848Z,22.02
2018-09-03T09:27:03.886Z,21.84
2018-09-03T09:28:03.924Z,22.06
2018-09-03T09:29:03.962Z,22.18
2018-09-03T09:30:03.999Z,22.42
2018-09-03T09:31:04.038Z,22.47
2018-09-03T09:32:04.077Z,22.68
2018-09-03T09:33:04.113Z,22.55
2018-09-03T09:34:04.154Z,22.36
2018-09-03T09:35:04.191Z,22.20
2018-09-03T09:36:04.229Z,22.27
2018-09-03T09:37:04.266Z,22.30
2018-09-03T09:38:04.305Z,22.42
2018-09-03T09:39:04.344Z,22.39
2018-09-03T09:40:04.382Z,22.61
2018-09-03T09:41:04.420Z,22.72
2018-09-03T09:42:04.565Z,22.61
2018-09-03T09:43:04.585Z,22.67
2018-09-03T09:44:04.541Z,22.72
2018-09-03T09:45:04.573Z,22.79
2018-09-03T09:46:04.614Z,23.15
2018-09-03T09:47:04.652Z,23.07
2018-09-03T09:48:04.690Z,23.28
2018-09-03T09:49:04.728Z,23.28
2018-09-03T09:50:04.768Z,23.17
2018-09-03T09:51:04.806Z,23.12
2018-09-03T09:52:04.844Z,23.25
2018-09-03T09:53:04.883Z,23.13
2018-09-03T09:54:04.921Z,23.10
2018-09-03T09:55:04.961Z,23.20
2018-09-03T09:56:05.000Z,23.00
2018-09-03T09:57:05.039Z,22.88
2018-09-03T09:58:05.077Z,23.16
2018-09-03T09:59:05.117Z,22.79
2018-09-03T10:00:05.161Z,22.79
2018-09-03T10:01:05.193Z,22.72
2018-09-03T10:02:05.234Z,22.70
2018-09-03T10:03:05.274Z,22.73
2018-09-03T10:04:05.312Z,22.80
2018-09-03T10:05:05.350Z,22.98
2018-09-03T10:06:05.390Z,22.97
2018-09-03T10:07:05.429Z,22.95
2018-09-03T10:08:05.468Z,23.27
2018-09-03T10:09:05.506Z,23.43
2018-09-03T10:10:05.545Z,23.63
2018-09-03T10:11:05.585Z,23.47
2018-09-03T10:12:05.624Z,23.48
2018-09-03T10:13:05.663Z,23.40
2018-09-03T10:14:05.715Z,23.60
2018-09-03T10:15:05.754Z,23.88
2018-09-03T10:16:05.795Z,24.16
2018-09-03T10:17:05.820Z,24.34
2018-09-03T10:18:05.859Z,24.22
2018-09-03T10:19:05.901Z,24.28
2018-09-03T10:20:05.944Z,24.13
2018-09-03T10:21:05.977Z,24.16
2018-09-03T10:22:06.019Z,23.79
2018-09-03T10:23:06.056Z,23.80
2018-09-03T10:24:06.096Z,23.98
2018-09-03T10:25:06.138Z,23.72
2018-09-03T10:26:06.188Z,23.46
2018-09-03T10:27:06.222Z,23.69
2018-09-03T10:28:06.255Z,24.03
2018-09-03T10:29:06.294Z,24.20
2018-09-03T10:30:06.334Z,24.31
2018-09-03T10:31:06.374Z,24.65
2018-09-03T10:32:06.415Z,24.84
2018-09-03T10:33:06.453Z,24.95
2018-09-03T10:34:06.493Z,25.13
2018-09-03T10:35:06.533Z,25.15
2018-09-03T10:36:06.574Z,25.70
2018-09-03T10:37:06.614Z,26.15
2018-09-03T10:38:06.664Z,26.48
2018-09-03T10:39:06.694Z,26.73
2018-09-03T10:40:06.735Z,27.19
2018-09-03T10:41:06.779Z,27.92
2018-09-03T10:42:06.816Z,28.12
2018-09-03T10:43:06.857Z,27.99
2018-09-03T10:44:06.898Z,27.74
2018-09-03T10:45:06.953Z,27.62
2018-09-03T10:46:07.311Z,26.92
2018-09-03T10:47:07.095Z,27.65
2018-09-03T10:48:07.066Z,28.22
2018-09-03T10:49:07.105Z,28.14
2018-09-03T10:50:07.171Z,28.24
2018-09-03T10:51:07.191Z,28.62
2018-09-03T10:52:07.231Z,28.62
2018-09-03T10:53:07.274Z,28.56
2018-09-03T10:54:07.316Z,28.66
2018-09-03T10:55:07.359Z,29.11
2018-09-03T10:56:07.415Z,29.16
2018-09-03T10:57:07.443Z,29.70
2018-09-03T10:58:07.487Z,29.74
2018-09-03T11:00:07.574Z,30.65
2018-09-03T11:01:07.619Z,31.06
2018-09-03T11:02:08.470Z,31.51
2018-09-03T11:03:08.740Z,30.61
2018-09-03T11:04:07.976Z,29.98
2018-09-03T11:06:07.837Z,29.19
2018-09-03T11:07:07.883Z,28.49
2018-09-03T11:08:07.925Z,28.55
2018-09-03T11:09:07.970Z,28.15
2018-09-03T11:10:08.019Z,28.83
2018-09-03T11:11:08.125Z,29.92
2018-09-03T11:12:08.103Z,29.36
2018-09-03T11:13:08.150Z,29.49
2018-09-03T11:14:08.195Z,29.46
2018-09-03T11:15:08.237Z,29.53
2018-09-03T11:16:08.282Z,29.11
2018-09-03T11:17:08.339Z,29.49
2018-09-03T11:18:08.371Z,29.76
2018-09-03T11:19:08.420Z,30.42
2018-09-03T11:20:08.462Z,32.06
2018-09-03T11:21:08.608Z,33.37
2018-09-03T11:22:08.553Z,33.93
2018-09-03T11:23:08.601Z,33.76
2018-09-03T11:24:08.646Z,33.63
2018-09-03T11:25:08.702Z,33.49
2018-09-03T11:26:08.741Z,32.47
2018-09-03T11:27:08.782Z,32.18
2018-09-03T11:28:08.829Z,32.07
2018-09-03T11:29:08.876Z,31.31
2018-09-03T11:30:08.921Z,30.46
2018-09-03T11:31:08.968Z,29.55
2018-09-03T11:32:09.018Z,29.23
2018-09-03T11:33:09.059Z,28.74
2018-09-03T11:34:09.105Z,28.62
2018-09-03T11:35:09.166Z,28.25
2018-09-03T11:36:09.201Z,28.04
2018-09-03T11:37:09.245Z,27.93
2018-09-03T11:38:09.290Z,27.92
2018-09-03T11:39:09.336Z,26.95
2018-09-03T11:40:09.380Z,26.55
2018-09-03T11:41:09.423Z,25.91
2018-09-03T11:42:09.469Z,25.82
2018-09-03T11:43:09.515Z,25.80
2018-09-03T11:44:09.557Z,25.67
2018-09-03T11:45:09.599Z,25.65
2018-09-03T11:46:09.643Z,25.75
2018-09-03T11:47:09.709Z,25.72
2018-09-03T11:48:09.731Z,25.57
2018-09-03T11:49:09.772Z,25.38
2018-09-03T11:50:09.816Z,25.14
2018-09-03T11:51:09.858Z,25.00
2018-09-03T11:52:09.901Z,24.88
2018-09-03T11:53:09.943Z,24.87
2018-09-03T11:54:09.985Z,24.81
2018-09-03T11:55:10.029Z,24.95
2018-09-03T11:56:10.072Z,24.98
2018-09-03T11:57:10.110Z,24.65
2018-09-03T11:58:10.160Z,24.65
2018-09-03T11:59:10.194Z,24.71
2018-09-03T12:00:10.234Z,24.68
2018-09-03T12:01:10.278Z,24.69
2018-09-03T12:02:10.410Z,24.73
2018-09-03T12:03:10.358Z,24.87
2018-09-03T12:04:10.403Z,24.98
2018-09-03T12:05:10.440Z,25.14
2018-09-03T12:06:10.481Z,25.30
2018-09-03T12:07:10.523Z,25.40
2018-09-03T12:08:10.565Z,25.62
2018-09-03T12:09:10.602Z,25.87
2018-09-03T12:10:10.643Z,26.01
2018-09-03T12:11:10.682Z,26.02
2018-09-03T12:12:10.724Z,26.33
2018-09-03T12:13:10.764Z,26.43
2018-09-03T12:14:10.804Z,26.60
2018-09-03T12:15:10.845Z,26.65
2018-09-03T12:16:10.886Z,26.65
2018-09-03T12:17:10.925Z,26.47
2018-09-03T12:18:10.966Z,26.36
2018-09-03T12:19:11.006Z,26.58
2018-09-03T12:20:11.047Z,26.80
2018-09-03T12:21:11.145Z,27.29
2018-09-03T12:22:11.128Z,27.55
2018-09-03T12:23:11.168Z,27.92
2018-09-03T12:24:11.211Z,28.06
2018-09-03T12:25:11.250Z,28.25
2018-09-03T12:26:11.291Z,28.33
2018-09-03T12:27:11.333Z,28.31
2018-09-03T12:28:11.375Z,28.56
2018-09-03T12:29:11.416Z,28.59
2018-09-03T12:30:11.457Z,28.52
2018-09-03T12:31:11.530Z,28.37
2018-09-03T12:32:11.542Z,28.30
2018-09-03T12:33:11.580Z,28.25
2018-09-03T12:34:11.622Z,27.59
2018-09-03T12:35:11.665Z,27.37
2018-09-03T12:36:11.706Z,27.03
2018-09-03T12:37:11.746Z,26.91
2018-09-03T12:38:11.788Z,26.88
2018-09-03T12:39:11.833Z,26.52
2018-09-03T12:40:11.872Z,26.23
2018-09-03T12:41:11.913Z,25.90
2018-09-03T12:42:11.955Z,25.92
2018-09-03T12:43:11.997Z,25.88
2018-09-03T12:44:12.037Z,26.01
2018-09-03T12:45:12.079Z,26.13
2018-09-03T12:46:12.171Z,26.35
2018-09-03T12:47:12.162Z,26.62
2018-09-03T12:48:12.204Z,26.89
2018-09-03T12:49:12.245Z,26.67
2018-09-03T12:50:12.349Z,26.82
2018-09-03T12:51:12.353Z,27.21
2018-09-03T12:52:12.369Z,29.46
2018-09-03T12:53:12.410Z,31.70
2018-09-03T12:54:12.452Z,32.65
2018-09-03T12:55:12.507Z,34.43